Terminal Aerodrome Forecast
Issued by NWS

Home | Current Version | Previous Version | Graphics & Text | Print | Product List | Glossary On
Versions: 1 2 3 4 5 6 7 8 9 10 11 12 13 14 15
000
FTUS43 KICT 031722
TAFCNU
TAF
KCNU 031722Z 0318/0418 19020G28KT P6SM SCT100
     FM040000 18011KT P6SM SCT200
     FM041500 19014G20KT P6SM VCSH SCT050 BKN100=

USA.gov is the U.S. government's official web portal to all federal, state and local government web resources and services.